sensor_id;sensor_type;location;lat;lon;timestamp;temperature;humidity
77039;DHT22;65970;50.476;4.840;2023-01-01T00:02:03;13.90;76.50
77039;DHT22;65970;50.476;4.840;2023-01-01T00:07:04;13.80;74.40
77039;DHT22;65970;50.476;4.840;2023-01-01T00:12:05;13.80;76.10
77039;DHT22;65970;50.476;4.840;2023-01-01T00:17:05;13.80;73.80
77039;DHT22;65970;50.476;4.840;2023-01-01T00:22:06;13.90;73.40
77039;DHT22;65970;50.476;4.840;2023-01-01T00:27:06;13.90;73.50
77039;DHT22;65970;50.476;4.840;2023-01-01T00:32:07;13.90;72.50
77039;DHT22;65970;50.476;4.840;2023-01-01T00:37:08;13.80;73.90
77039;DHT22;65970;50.476;4.840;2023-01-01T00:42:08;13.80;73.00
77039;DHT22;65970;50.476;4.840;2023-01-01T00:47:09;13.80;71.50
77039;DHT22;65970;50.476;4.840;2023-01-01T00:52:10;13.80;72.90
77039;DHT22;65970;50.476;4.840;2023-01-01T00:57:11;13.80;73.40
77039;DHT22;65970;50.476;4.840;2023-01-01T01:02:12;13.80;73.70
77039;DHT22;65970;50.476;4.840;2023-01-01T01:07:12;13.70;73.00
77039;DHT22;65970;50.476;4.840;2023-01-01T01:12:13;13.80;73.40
77039;DHT22;65970;50.476;4.840;2023-01-01T01:17:13;13.80;73.40
77039;DHT22;65970;50.476;4.840;2023-01-01T01:22:14;13.70;73.50
77039;DHT22;65970;50.476;4.840;2023-01-01T01:27:15;13.70;74.40
77039;DHT22;65970;50.476;4.840;2023-01-01T01:32:15;13.80;74.30
77039;DHT22;65970;50.476;4.840;2023-01-01T01:37:16;13.70;75.20
77039;DHT22;65970;50.476;4.840;2023-01-01T01:42:17;13.80;72.80
77039;DHT22;65970;50.476;4.840;2023-01-01T01:47:37;13.80;74.00
77039;DHT22;65970;50.476;4.840;2023-01-01T01:57:57;13.70;74.00
77039;DHT22;65970;50.476;4.840;2023-01-01T02:07:59;13.80;75.90
77039;DHT22;65970;50.476;4.840;2023-01-01T02:12:59;13.80;75.20
77039;DHT22;65970;50.476;4.840;2023-01-01T02:18:05;13.80;76.50
77039;DHT22;65970;50.476;4.840;2023-01-01T02:33:49;13.70;73.80
77039;DHT22;65970;50.476;4.840;2023-01-01T02:38:52;13.70;75.30
77039;DHT22;65970;50.476;4.840;2023-01-01T02:43:54;13.70;78.60
77039;DHT22;65970;50.476;4.840;2023-01-01T02:48:54;13.60;78.00
77039;DHT22;65970;50.476;4.840;2023-01-01T03:10:06;13.60;80.10
77039;DHT22;65970;50.476;4.840;2023-01-01T03:15:23;13.50;80.90
77039;DHT22;65970;50.476;4.840;2023-01-01T03:20:27;13.50;81.50
77039;DHT22;65970;50.476;4.840;2023-01-01T03:25:33;13.50;80.40
77039;DHT22;65970;50.476;4.840;2023-01-01T03:30:36;13.50;81.10
77039;DHT22;65970;50.476;4.840;2023-01-01T03:36:00;13.50;83.00
77039;DHT22;65970;50.476;4.840;2023-01-01T03:46:43;13.50;80.50
77039;DHT22;65970;50.476;4.840;2023-01-01T03:52:34;13.40;81.70
77039;DHT22;65970;50.476;4.840;2023-01-01T03:57:34;13.40;81.40
77039;DHT22;65970;50.476;4.840;2023-01-01T04:07:48;13.40;83.50
77039;DHT22;65970;50.476;4.840;2023-01-01T04:12:51;13.30;84.30
77039;DHT22;65970;50.476;4.840;2023-01-01T04:17:53;13.30;82.00
77039;DHT22;65970;50.476;4.840;2023-01-01T04:22:58;13.30;83.50
77039;DHT22;65970;50.476;4.840;2023-01-01T04:27:59;13.30;84.40
77039;DHT22;65970;50.476;4.840;2023-01-01T04:32:59;13.20;86.30
77039;DHT22;65970;50.476;4.840;2023-01-01T04:38:00;13.20;85.00
77039;DHT22;65970;50.476;4.840;2023-01-01T04:43:00;13.20;86.40
77039;DHT22;65970;50.476;4.840;2023-01-01T04:48:04;13.20;86.10
77039;DHT22;65970;50.476;4.840;2023-01-01T04:53:05;13.20;85.30
77039;DHT22;65970;50.476;4.840;2023-01-01T04:58:05;13.20;87.80
77039;DHT22;65970;50.476;4.840;2023-01-01T05:03:06;13.10;88.50
77039;DHT22;65970;50.476;4.840;2023-01-01T05:08:06;13.10;94.10
77039;DHT22;65970;50.476;4.840;2023-01-01T05:13:07;13.10;92.70
77039;DHT22;65970;50.476;4.840;2023-01-01T05:18:08;13.00;90.50
77039;DHT22;65970;50.476;4.840;2023-01-01T05:23:08;13.10;93.00
77039;DHT22;65970;50.476;4.840;2023-01-01T05:28:09;13.10;92.60
77039;DHT22;65970;50.476;4.840;2023-01-01T05:33:09;13.00;92.20
77039;DHT22;65970;50.476;4.840;2023-01-01T05:38:10;13.00;93.80
77039;DHT22;65970;50.476;4.840;2023-01-01T05:43:11;13.00;93.60
77039;DHT22;65970;50.476;4.840;2023-01-01T05:48:11;13.00;94.70
77039;DHT22;65970;50.476;4.840;2023-01-01T05:53:12;13.00;93.70
77039;DHT22;65970;50.476;4.840;2023-01-01T05:58:12;13.10;94.90
77039;DHT22;65970;50.476;4.840;2023-01-01T06:03:13;13.10;99.90
77039;DHT22;65970;50.476;4.840;2023-01-01T06:08:13;13.00;99.90
77039;DHT22;65970;50.476;4.840;2023-01-01T06:13:14;13.00;99.90
77039;DHT22;65970;50.476;4.840;2023-01-01T06:18:15;12.90;99.90
77039;DHT22;65970;50.476;4.840;2023-01-01T06:23:15;12.80;99.90
77039;DHT22;65970;50.476;4.840;2023-01-01T06:28:16;12.80;99.90
77039;DHT22;65970;50.476;4.840;2023-01-01T06:33:16;12.70;99.90
77039;DHT22;65970;50.476;4.840;2023-01-01T06:38:17;12.70;99.90
77039;DHT22;65970;50.476;4.840;2023-01-01T06:43:17;12.60;99.90
77039;DHT22;65970;50.476;4.840;2023-01-01T06:48:18;12.60;99.90
77039;DHT22;65970;50.476;4.840;2023-01-01T06:53:22;12.50;99.90
77039;DHT22;65970;50.476;4.840;2023-01-01T06:58:23;12.40;99.90
77039;DHT22;65970;50.476;4.840;2023-01-01T07:03:24;12.40;99.90
77039;DHT22;65970;50.476;4.840;2023-01-01T07:08:24;12.40;99.90
77039;DHT22;65970;50.476;4.840;2023-01-01T07:13:25;12.40;99.90
77039;DHT22;65970;50.476;4.840;2023-01-01T07:18:26;12.40;99.90
77039;DHT22;65970;50.476;4.840;2023-01-01T07:23:28;12.30;99.90
77039;DHT22;65970;50.476;4.840;2023-01-01T07:28:29;12.30;99.90
77039;DHT22;65970;50.476;4.840;2023-01-01T07:33:30;12.30;99.90
77039;DHT22;65970;50.476;4.840;2023-01-01T07:43:46;12.30;99.90
77039;DHT22;65970;50.476;4.840;2023-01-01T07:48:46;12.30;99.90
77039;DHT22;65970;50.476;4.840;2023-01-01T07:53:47;12.30;99.90
77039;DHT22;65970;50.476;4.840;2023-01-01T07:58:47;12.40;99.90
77039;DHT22;65970;50.476;4.840;2023-01-01T08:03:51;12.40;99.90
77039;DHT22;65970;50.476;4.840;2023-01-01T08:08:52;12.40;99.90
77039;DHT22;65970;50.476;4.840;2023-01-01T08:13:53;12.40;99.90
77039;DHT22;65970;50.476;4.840;2023-01-01T08:18:53;12.40;99.90
77039;DHT22;65970;50.476;4.840;2023-01-01T08:23:54;12.50;99.90
77039;DHT22;65970;50.476;4.840;2023-01-01T08:28:55;12.50;99.90
77039;DHT22;65970;50.476;4.840;2023-01-01T08:33:55;12.50;99.90
77039;DHT22;65970;50.476;4.840;2023-01-01T08:38:56;12.60;99.90
77039;DHT22;65970;50.476;4.840;2023-01-01T08:43:57;12.60;99.90
77039;DHT22;65970;50.476;4.840;2023-01-01T08:48:57;12.70;99.90
77039;DHT22;65970;50.476;4.840;2023-01-01T08:53:58;12.70;99.90
77039;DHT22;65970;50.476;4.840;2023-01-01T08:58:59;12.70;99.90
77039;DHT22;65970;50.476;4.840;2023-01-01T09:04:00;12.70;99.90
77039;DHT22;65970;50.476;4.840;2023-01-01T09:09:01;12.70;99.90
77039;DHT22;65970;50.476;4.840;2023-01-01T09:14:01;12.70;99.90
77039;DHT22;65970;50.476;4.840;2023-01-01T09:19:02;12.80;99.90
77039;DHT22;65970;50.476;4.840;2023-01-01T09:24:03;12.80;99.90
77039;DHT22;65970;50.476;4.840;2023-01-01T09:29:04;12.80;99.90
77039;DHT22;65970;50.476;4.840;2023-01-01T09:34:04;12.90;99.90
77039;DHT22;65970;50.476;4.840;2023-01-01T09:39:05;12.90;99.90
77039;DHT22;65970;50.476;4.840;2023-01-01T09:49:31;12.90;99.90
77039;DHT22;65970;50.476;4.840;2023-01-01T09:54:38;12.90;99.90
77039;DHT22;65970;50.476;4.840;2023-01-01T09:59:40;12.90;99.90
77039;DHT22;65970;50.476;4.840;2023-01-01T10:10:17;13.00;99.90
77039;DHT22;65970;50.476;4.840;2023-01-01T10:15:24;13.00;99.90
77039;DHT22;65970;50.476;4.840;2023-01-01T10:20:26;13.00;99.90
77039;DHT22;65970;50.476;4.840;2023-01-01T10:25:33;13.00;99.90
77039;DHT22;65970;50.476;4.840;2023-01-01T10:30:34;13.10;99.90
77039;DHT22;65970;50.476;4.840;2023-01-01T10:35:39;13.10;99.90
77039;DHT22;65970;50.476;4.840;2023-01-01T10:40:41;13.10;99.90
77039;DHT22;65970;50.476;4.840;2023-01-01T10:45:44;13.20;99.90
77039;DHT22;65970;50.476;4.840;2023-01-01T10:55:56;13.20;99.90
77039;DHT22;65970;50.476;4.840;2023-01-01T11:00:59;13.20;99.90
77039;DHT22;65970;50.476;4.840;2023-01-01T11:11:27;13.20;99.90
77039;DHT22;65970;50.476;4.840;2023-01-01T11:16:29;13.20;99.90
77039;DHT22;65970;50.476;4.840;2023-01-01T11:21:30;13.20;99.90
77039;DHT22;65970;50.476;4.840;2023-01-01T11:26:31;13.20;99.90
77039;DHT22;65970;50.476;4.840;2023-01-01T11:31:38;13.20;99.90
77039;DHT22;65970;50.476;4.840;2023-01-01T11:36:39;13.20;99.90
77039;DHT22;65970;50.476;4.840;2023-01-01T11:41:48;13.20;99.90
77039;DHT22;65970;50.476;4.840;2023-01-01T11:46:49;13.20;99.90
77039;DHT22;65970;50.476;4.840;2023-01-01T11:51:50;13.20;99.90
77039;DHT22;65970;50.476;4.840;2023-01-01T11:56:57;13.20;99.90
77039;DHT22;65970;50.476;4.840;2023-01-01T12:02:02;13.20;99.90
77039;DHT22;65970;50.476;4.840;2023-01-01T12:07:06;13.20;99.90
77039;DHT22;65970;50.476;4.840;2023-01-01T12:12:14;13.20;99.90
77039;DHT22;65970;50.476;4.840;2023-01-01T12:17:31;13.20;99.90
77039;DHT22;65970;50.476;4.840;2023-01-01T12:22:32;13.30;99.90
77039;DHT22;65970;50.476;4.840;2023-01-01T12:27:46;13.30;99.90
77039;DHT22;65970;50.476;4.840;2023-01-01T12:33:57;13.20;99.90
77039;DHT22;65970;50.476;4.840;2023-01-01T12:59:31;13.20;99.90
77039;DHT22;65970;50.476;4.840;2023-01-01T13:14:49;13.20;99.90
77039;DHT22;65970;50.476;4.840;2023-01-01T13:47:26;13.20;99.90
77039;DHT22;65970;50.476;4.840;2023-01-01T14:08:44;13.20;99.90
77039;DHT22;65970;50.476;4.840;2023-01-01T14:13:45;13.10;99.90
77039;DHT22;65970;50.476;4.840;2023-01-01T14:24:04;13.00;99.90
77039;DHT22;65970;50.476;4.840;2023-01-01T14:29:26;13.00;99.90
77039;DHT22;65970;50.476;4.840;2023-01-01T14:34:57;12.90;99.90
77039;DHT22;65970;50.476;4.840;2023-01-01T14:50:24;12.80;99.90
77039;DHT22;65970;50.476;4.840;2023-01-01T14:55:27;12.70;99.90
77039;DHT22;65970;50.476;4.840;2023-01-01T15:00:33;12.60;99.90
77039;DHT22;65970;50.476;4.840;2023-01-01T17:49:48;11.30;99.90
77039;DHT22;65970;50.476;4.840;2023-01-01T17:54:51;11.40;99.90
77039;DHT22;65970;50.476;4.840;2023-01-01T17:59:54;11.40;99.90
77039;DHT22;65970;50.476;4.840;2023-01-01T18:47:47;11.50;99.90
77039;DHT22;65970;50.476;4.840;2023-01-01T18:52:51;11.40;99.90
77039;DHT22;65970;50.476;4.840;2023-01-01T19:03:14;11.40;99.90
77039;DHT22;65970;50.476;4.840;2023-01-01T19:08:18;11.50;99.90
77039;DHT22;65970;50.476;4.840;2023-01-01T19:13:45;11.40;99.90
77039;DHT22;65970;50.476;4.840;2023-01-01T19:19:24;11.40;99.90
77039;DHT22;65970;50.476;4.840;2023-01-01T19:24:27;11.40;99.90
77039;DHT22;65970;50.476;4.840;2023-01-01T19:29:43;11.40;99.90
77039;DHT22;65970;50.476;4.840;2023-01-01T19:35:03;11.40;99.90
77039;DHT22;65970;50.476;4.840;2023-01-01T19:40:04;11.40;99.90
77039;DHT22;65970;50.476;4.840;2023-01-01T19:50:19;11.40;99.90
77039;DHT22;65970;50.476;4.840;2023-01-01T20:21:05;11.60;99.90
77039;DHT22;65970;50.476;4.840;2023-01-01T20:26:06;11.60;99.90
77039;DHT22;65970;50.476;4.840;2023-01-01T20:31:06;11.60;99.90
77039;DHT22;65970;50.476;4.840;2023-01-01T20:36:07;11.60;99.90
77039;DHT22;65970;50.476;4.840;2023-01-01T20:41:08;11.60;99.90
77039;DHT22;65970;50.476;4.840;2023-01-01T20:46:08;11.60;99.90
77039;DHT22;65970;50.476;4.840;2023-01-01T20:51:09;11.70;99.90
77039;DHT22;65970;50.476;4.840;2023-01-01T20:56:09;11.70;99.90
77039;DHT22;65970;50.476;4.840;2023-01-01T21:01:10;11.80;99.90
77039;DHT22;65970;50.476;4.840;2023-01-01T21:06:11;11.80;99.90
77039;DHT22;65970;50.476;4.840;2023-01-01T21:11:15;11.90;99.90
77039;DHT22;65970;50.476;4.840;2023-01-01T21:16:36;11.90;99.90
77039;DHT22;65970;50.476;4.840;2023-01-01T21:21:50;12.00;99.90
77039;DHT22;65970;50.476;4.840;2023-01-01T21:26:53;12.00;99.90
77039;DHT22;65970;50.476;4.840;2023-01-01T21:32:15;12.10;99.90
77039;DHT22;65970;50.476;4.840;2023-01-01T21:37:35;12.10;99.90
77039;DHT22;65970;50.476;4.840;2023-01-01T21:53:32;12.30;99.90
77039;DHT22;65970;50.476;4.840;2023-01-01T21:58:44;12.30;99.90
77039;DHT22;65970;50.476;4.840;2023-01-01T22:03:58;12.40;99.90
77039;DHT22;65970;50.476;4.840;2023-01-01T22:09:00;12.40;99.90
77039;DHT22;65970;50.476;4.840;2023-01-01T22:14:14;12.50;99.90
77039;DHT22;65970;50.476;4.840;2023-01-01T22:19:21;12.60;99.90
77039;DHT22;65970;50.476;4.840;2023-01-01T22:24:37;12.70;99.90
77039;DHT22;65970;50.476;4.840;2023-01-01T22:35:20;12.70;99.90
77039;DHT22;65970;50.476;4.840;2023-01-01T22:56:46;13.00;99.90
